createdAt,value
2019-05-26T00:00:22.182Z,15.30
2019-05-26T00:02:51.829Z,15.30
2019-05-26T00:05:21.400Z,15.31
2019-05-26T00:07:51.005Z,15.25
2019-05-26T00:10:20.792Z,15.14
2019-05-26T00:12:50.419Z,15.10
2019-05-26T00:15:20.244Z,15.03
2019-05-26T00:17:50.104Z,15.03
2019-05-26T00:20:19.723Z,14.97
2019-05-26T00:22:49.389Z,14.95
2019-05-26T00:25:19.172Z,14.89
2019-05-26T00:27:48.734Z,14.82
2019-05-26T00:30:19.222Z,14.80
2019-05-26T00:32:48.830Z,14.76
2019-05-26T00:35:18.468Z,14.74
2019-05-26T00:37:50.388Z,14.76
2019-05-26T00:40:21.405Z,14.81
2019-05-26T00:42:51.157Z,14.72
2019-05-26T00:45:22.566Z,14.70
2019-05-26T00:47:52.683Z,14.71
2019-05-26T00:50:23.508Z,14.59
2019-05-26T00:52:56.359Z,14.49
2019-05-26T00:55:24.634Z,14.47
2019-05-26T00:57:54.250Z,14.49
2019-05-26T01:00:45.585Z,14.42
2019-05-26T01:03:15.167Z,14.37
2019-05-26T01:05:44.803Z,14.28
2019-05-26T01:08:14.477Z,14.26
2019-05-26T01:10:44.081Z,14.26
2019-05-26T01:13:13.686Z,14.23
2019-05-26T01:15:43.289Z,14.23
2019-05-26T01:18:12.921Z,14.14
2019-05-26T01:20:42.546Z,14.10
2019-05-26T01:23:12.158Z,14.03
2019-05-26T01:25:42.498Z,14.02
2019-05-26T01:28:12.140Z,14.03
2019-05-26T01:30:41.917Z,13.94
2019-05-26T01:33:11.542Z,13.92
2019-05-26T01:35:42.583Z,13.92
2019-05-26T01:38:23.034Z,13.93
2019-05-26T01:40:46.804Z,13.94
2019-05-26T01:43:16.471Z,13.89
2019-05-26T01:45:46.080Z,13.87
2019-05-26T01:48:15.714Z,13.89
2019-05-26T01:50:45.315Z,13.90
2019-05-26T01:53:14.924Z,13.89
2019-05-26T01:55:44.526Z,13.89
2019-05-26T01:58:14.174Z,13.85
2019-05-26T02:00:43.797Z,13.87
2019-05-26T02:03:13.438Z,13.87
2019-05-26T02:05:43.045Z,13.81
2019-05-26T02:08:12.900Z,13.79
2019-05-26T02:10:42.801Z,13.77
2019-05-26T02:13:12.454Z,13.74
2019-05-26T02:15:42.147Z,13.70
2019-05-26T02:18:11.886Z,13.68
2019-05-26T02:20:41.935Z,13.66
2019-05-26T02:23:11.553Z,13.65
2019-05-26T02:25:41.169Z,13.63
2019-05-26T02:28:10.812Z,13.56
2019-05-26T02:30:40.589Z,13.58
2019-05-26T02:33:10.401Z,13.57
2019-05-26T02:35:39.999Z,13.54
2019-05-26T02:38:09.729Z,13.47
2019-05-26T02:40:39.320Z,13.46
2019-05-26T02:43:09.036Z,13.42
2019-05-26T02:45:38.789Z,13.42
2019-05-26T02:48:08.404Z,13.37
2019-05-26T02:50:38.102Z,13.33
2019-05-26T02:53:07.854Z,13.29
2019-05-26T02:55:37.548Z,13.28
2019-05-26T02:58:07.294Z,13.24
2019-05-26T03:00:46.863Z,13.25
2019-05-26T03:03:17.220Z,13.25
2019-05-26T03:05:47.591Z,13.20
2019-05-26T03:08:18.149Z,13.18
2019-05-26T03:10:51.473Z,13.20
2019-05-26T03:13:21.072Z,13.20
2019-05-26T03:15:51.562Z,13.16
2019-05-26T03:18:21.168Z,13.25
2019-05-26T03:20:50.763Z,13.27
2019-05-26T03:23:20.497Z,13.15
2019-05-26T03:25:50.086Z,13.13
2019-05-26T03:28:19.724Z,13.12
2019-05-26T03:30:49.397Z,13.12
2019-05-26T03:33:18.993Z,13.13
2019-05-26T03:35:48.613Z,13.14
2019-05-26T03:38:18.346Z,13.14
2019-05-26T03:40:47.964Z,13.16
2019-05-26T03:43:17.606Z,13.13
2019-05-26T03:46:12.717Z,13.11
2019-05-26T03:48:42.371Z,13.12
2019-05-26T03:51:12.038Z,13.18
2019-05-26T03:53:41.706Z,13.25
2019-05-26T03:56:11.325Z,13.30
2019-05-26T03:58:40.937Z,13.36
2019-05-26T04:01:10.619Z,13.44
2019-05-26T04:03:40.334Z,13.48
2019-05-26T04:06:10.031Z,13.57
2019-05-26T04:08:39.651Z,13.64
2019-05-26T04:11:09.415Z,13.63
2019-05-26T04:13:39.062Z,13.66
2019-05-26T04:16:08.711Z,13.69
2019-05-26T04:18:38.336Z,13.74
2019-05-26T04:21:07.985Z,13.85
2019-05-26T04:23:37.612Z,13.97
2019-05-26T04:26:07.234Z,14.08
2019-05-26T04:28:36.852Z,14.18
2019-05-26T04:31:06.534Z,14.27
2019-05-26T04:33:36.144Z,14.34
2019-05-26T04:36:05.840Z,14.41
2019-05-26T04:38:35.508Z,14.52
2019-05-26T04:41:05.484Z,14.68
2019-05-26T04:43:35.071Z,14.80
2019-05-26T04:46:04.899Z,14.87
2019-05-26T04:48:34.731Z,14.99
2019-05-26T04:51:04.507Z,15.12
2019-05-26T04:53:34.116Z,15.22
2019-05-26T04:56:03.742Z,15.29
2019-05-26T04:58:33.361Z,15.41
2019-05-26T05:01:02.994Z,15.55
2019-05-26T05:03:32.618Z,15.64
2019-05-26T05:06:02.251Z,15.72
2019-05-26T05:08:31.872Z,15.85
2019-05-26T05:11:01.652Z,15.94
2019-05-26T05:13:31.267Z,16.04
2019-05-26T05:16:01.083Z,16.10
2019-05-26T05:18:30.742Z,16.21
2019-05-26T05:21:00.657Z,16.31
2019-05-26T05:23:31.933Z,16.38
2019-05-26T05:26:01.541Z,16.51
2019-05-26T05:28:31.619Z,16.58
2019-05-26T05:31:01.381Z,16.63
2019-05-26T05:33:31.021Z,16.65
2019-05-26T05:36:01.644Z,16.75
2019-05-26T05:38:31.270Z,16.89
2019-05-26T05:41:00.934Z,17.04
2019-05-26T05:43:30.596Z,17.09
2019-05-26T05:46:00.281Z,17.12
2019-05-26T05:48:30.766Z,17.22
2019-05-26T05:51:00.364Z,17.40
2019-05-26T05:53:30.070Z,17.56
2019-05-26T05:55:59.677Z,17.64
2019-05-26T05:58:29.279Z,17.66
2019-05-26T06:01:00.553Z,17.81
2019-05-26T06:03:32.975Z,17.93
2019-05-26T06:06:04.209Z,18.01
2019-05-26T06:08:33.786Z,18.16
2019-05-26T06:11:15.929Z,18.38
2019-05-26T06:13:37.855Z,18.51
2019-05-26T06:16:07.658Z,18.46
2019-05-26T06:18:37.262Z,18.48
2019-05-26T06:21:06.871Z,18.52
2019-05-26T06:23:37.122Z,18.59
2019-05-26T06:26:08.602Z,18.79
2019-05-26T06:28:38.208Z,18.98
2019-05-26T06:31:07.827Z,19.06
2019-05-26T06:33:37.432Z,19.13
2019-05-26T06:36:07.040Z,19.17
2019-05-26T06:38:36.639Z,19.20
2019-05-26T06:41:06.239Z,19.31
2019-05-26T06:43:36.542Z,19.41
2019-05-26T06:46:06.242Z,19.46
2019-05-26T06:48:35.870Z,19.64
2019-05-26T06:51:05.489Z,19.84
2019-05-26T06:53:37.449Z,20.04
2019-05-26T06:56:07.485Z,20.22
2019-05-26T06:58:37.225Z,20.39
2019-05-26T07:01:07.121Z,20.55
2019-05-26T07:03:36.805Z,20.77
2019-05-26T07:06:06.428Z,20.92
2019-05-26T07:08:36.030Z,20.95
2019-05-26T07:11:08.705Z,20.98
2019-05-26T07:13:38.289Z,21.20
2019-05-26T07:16:07.918Z,21.36
2019-05-26T07:18:37.508Z,21.41
2019-05-26T07:21:07.108Z,21.46
2019-05-26T07:23:36.718Z,21.57
2019-05-26T07:26:06.325Z,21.75
2019-05-26T07:28:35.942Z,22.10
2019-05-26T07:31:05.832Z,22.36
2019-05-26T07:33:35.433Z,22.43
2019-05-26T07:36:05.241Z,22.57
2019-05-26T07:38:34.883Z,22.65
2019-05-26T07:41:04.524Z,22.85
2019-05-26T07:43:35.720Z,23.02
2019-05-26T07:46:06.555Z,23.24
2019-05-26T07:48:36.407Z,23.60
2019-05-26T07:51:06.166Z,24.01
2019-05-26T07:53:38.335Z,24.26
2019-05-26T07:56:07.277Z,24.28
2019-05-26T07:58:36.926Z,24.64
2019-05-26T08:01:06.576Z,25.04
2019-05-26T08:03:37.847Z,25.55
2019-05-26T08:06:07.520Z,25.80
2019-05-26T08:08:37.138Z,26.12
2019-05-26T08:11:06.798Z,26.46
2019-05-26T08:13:38.144Z,26.89
2019-05-26T08:16:07.691Z,27.33
2019-05-26T08:18:37.321Z,27.72
2019-05-26T08:21:06.999Z,28.08
2019-05-26T08:23:36.607Z,28.43
2019-05-26T08:26:06.227Z,28.36
2019-05-26T08:28:35.840Z,28.66
2019-05-26T08:31:05.465Z,29.13
2019-05-26T08:33:35.068Z,29.50
2019-05-26T08:36:04.749Z,29.42
2019-05-26T08:38:34.418Z,29.58
2019-05-26T08:41:04.596Z,29.78
2019-05-26T08:43:34.205Z,30.15
2019-05-26T08:46:03.893Z,30.74
2019-05-26T08:48:33.641Z,31.33
2019-05-26T08:51:05.559Z,31.46
2019-05-26T08:53:35.177Z,31.26
2019-05-26T08:56:04.789Z,31.77
2019-05-26T08:58:34.419Z,32.20
2019-05-26T09:01:04.059Z,32.41
2019-05-26T09:03:33.658Z,32.46
2019-05-26T09:06:03.256Z,33.22
2019-05-26T09:08:32.905Z,33.71
2019-05-26T09:11:03.249Z,33.67
2019-05-26T09:13:32.858Z,34.65
2019-05-26T09:16:02.490Z,35.57
2019-05-26T09:18:32.091Z,36.36
2019-05-26T09:21:01.707Z,36.49
2019-05-26T09:23:31.335Z,36.59
2019-05-26T09:26:00.924Z,36.89
2019-05-26T09:28:30.626Z,37.05
2019-05-26T09:31:00.235Z,37.68
2019-05-26T09:33:29.880Z,38.42
2019-05-26T09:35:59.451Z,36.61
2019-05-26T09:38:29.161Z,36.06
2019-05-26T09:40:58.772Z,36.49
2019-05-26T09:43:28.452Z,35.91
2019-05-26T09:45:58.240Z,37.55
2019-05-26T09:48:27.847Z,37.96
2019-05-26T09:50:57.472Z,37.87
2019-05-26T09:53:27.065Z,38.49
2019-05-26T09:55:56.746Z,37.28
2019-05-26T09:58:26.345Z,38.12
2019-05-26T10:00:55.932Z,38.63
2019-05-26T10:03:25.553Z,38.78
2019-05-26T10:05:55.140Z,39.16
2019-05-26T10:08:24.924Z,39.98
2019-05-26T10:10:54.559Z,40.87
2019-05-26T10:13:31.771Z,40.75
2019-05-26T10:15:55.506Z,40.90
2019-05-26T10:18:25.216Z,39.75
2019-05-26T10:20:55.065Z,38.57
2019-05-26T10:23:24.794Z,39.11
2019-05-26T10:25:54.400Z,40.02
2019-05-26T10:28:23.996Z,40.01
2019-05-26T10:30:53.623Z,40.16
2019-05-26T10:33:23.284Z,41.22
2019-05-26T10:35:54.471Z,42.24
2019-05-26T10:38:24.564Z,41.35
2019-05-26T10:40:54.180Z,40.81
2019-05-26T10:43:23.756Z,41.44
2019-05-26T10:45:53.415Z,39.64
2019-05-26T10:48:23.004Z,38.94
2019-05-26T10:50:52.849Z,41.70
2019-05-26T10:53:22.524Z,43.53
2019-05-26T10:55:52.095Z,44.41
2019-05-26T10:58:21.907Z,44.29
2019-05-26T11:00:51.535Z,44.09
2019-05-26T11:03:21.261Z,42.84
2019-05-26T11:05:50.922Z,41.95
2019-05-26T11:08:20.664Z,39.81
2019-05-26T11:10:50.409Z,40.19
2019-05-26T11:13:20.083Z,42.07
2019-05-26T11:15:49.691Z,41.00
2019-05-26T11:18:19.285Z,41.31
2019-05-26T11:20:48.908Z,42.93
2019-05-26T11:23:18.506Z,43.15
2019-05-26T11:25:48.109Z,40.25
2019-05-26T11:28:17.700Z,38.98
2019-05-26T11:30:47.303Z,40.01
2019-05-26T11:33:16.914Z,41.16
2019-05-26T11:35:46.642Z,40.89
2019-05-26T11:38:16.250Z,42.25
2019-05-26T11:40:45.917Z,40.90
2019-05-26T11:43:17.104Z,41.94
2019-05-26T11:45:46.879Z,43.49
2019-05-26T11:48:16.519Z,43.72
2019-05-26T11:50:46.135Z,44.83
2019-05-26T11:53:18.161Z,45.88
2019-05-26T11:55:47.780Z,45.76
2019-05-26T11:58:18.956Z,44.25
2019-05-26T12:00:48.606Z,42.32
2019-05-26T12:03:18.229Z,42.95
2019-05-26T12:05:47.822Z,43.81
2019-05-26T12:08:17.432Z,44.56
2019-05-26T12:10:47.075Z,43.86
2019-05-26T12:13:16.846Z,45.27
2019-05-26T12:15:46.450Z,45.78
2019-05-26T12:18:16.039Z,45.63
2019-05-26T12:20:45.891Z,44.66
2019-05-26T12:23:15.539Z,44.18
2019-05-26T12:25:45.188Z,44.65
2019-05-26T12:28:14.816Z,44.92
2019-05-26T12:30:44.528Z,45.04
2019-05-26T12:33:14.236Z,45.06
2019-05-26T12:35:45.805Z,45.19
2019-05-26T12:38:16.057Z,45.69
2019-05-26T12:40:46.666Z,47.08
2019-05-26T12:43:16.294Z,46.82
2019-05-26T12:45:45.903Z,48.12
2019-05-26T12:48:15.575Z,49.24
2019-05-26T12:50:45.212Z,47.61
2019-05-26T12:53:14.852Z,46.31
2019-05-26T12:55:44.461Z,46.50
2019-05-26T12:58:14.418Z,45.15
2019-05-26T13:00:48.675Z,43.18
2019-05-26T13:03:15.350Z,44.93
2019-05-26T13:05:44.942Z,46.95
2019-05-26T13:08:14.599Z,46.53
2019-05-26T13:10:44.256Z,45.56
2019-05-26T13:13:15.477Z,42.45
2019-05-26T13:15:45.072Z,41.80
2019-05-26T13:18:14.695Z,44.03
2019-05-26T13:20:46.029Z,46.11
2019-05-26T13:23:15.637Z,45.82
2019-05-26T13:25:48.520Z,45.54
2019-05-26T13:28:18.134Z,44.10
2019-05-26T13:30:47.739Z,45.01
2019-05-26T13:33:17.413Z,45.93
2019-05-26T13:35:49.832Z,46.81
2019-05-26T13:38:19.819Z,47.84
2019-05-26T13:40:49.376Z,47.93
2019-05-26T13:43:19.090Z,47.99
2019-05-26T13:45:48.681Z,47.42
2019-05-26T13:48:18.298Z,45.95
2019-05-26T13:50:47.895Z,42.67
2019-05-26T13:53:17.520Z,40.53
2019-05-26T13:55:47.192Z,39.39
2019-05-26T13:58:16.897Z,40.33
2019-05-26T14:00:46.686Z,42.88
2019-05-26T14:03:18.623Z,43.83
2019-05-26T14:05:47.799Z,43.75
2019-05-26T14:08:17.465Z,42.95
2019-05-26T14:10:51.726Z,42.82
2019-05-26T14:13:21.337Z,43.16
2019-05-26T14:15:53.207Z,41.86
2019-05-26T14:18:24.039Z,43.82
2019-05-26T14:20:53.625Z,46.24
2019-05-26T14:23:23.373Z,47.63
2019-05-26T14:25:52.933Z,48.23
2019-05-26T14:28:22.535Z,46.97
2019-05-26T14:30:52.133Z,47.19
2019-05-26T14:33:21.722Z,48.38
2019-05-26T14:35:51.330Z,48.37
2019-05-26T14:38:20.935Z,46.63
2019-05-26T14:40:50.576Z,46.11
2019-05-26T14:43:20.192Z,45.85
2019-05-26T14:45:53.684Z,42.43
2019-05-26T14:48:21.164Z,40.35
2019-05-26T14:50:54.144Z,41.73
2019-05-26T14:53:23.836Z,43.30
2019-05-26T14:55:53.436Z,43.89
2019-05-26T14:58:23.104Z,44.51
2019-05-26T15:00:52.788Z,45.30
2019-05-26T15:03:22.382Z,44.76
2019-05-26T15:06:05.102Z,43.95
2019-05-26T15:08:23.474Z,44.19
2019-05-26T15:10:53.053Z,44.13
2019-05-26T15:13:22.669Z,44.23
2019-05-26T15:16:06.909Z,44.20
2019-05-26T15:18:23.783Z,43.91
2019-05-26T15:20:56.390Z,41.80
2019-05-26T15:23:26.165Z,38.54
2019-05-26T15:25:55.759Z,38.48
2019-05-26T15:28:28.011Z,40.00
2019-05-26T15:30:57.613Z,41.60
2019-05-26T15:33:27.223Z,42.50
2019-05-26T15:35:56.956Z,42.67
2019-05-26T15:38:41.687Z,42.32
2019-05-26T15:40:57.981Z,40.28
2019-05-26T15:43:27.534Z,39.21
2019-05-26T15:45:57.143Z,39.96
2019-05-26T15:48:26.828Z,40.55
2019-05-26T15:50:56.451Z,40.58
2019-05-26T15:53:26.037Z,39.57
2019-05-26T15:55:58.886Z,37.44
2019-05-26T15:58:29.470Z,35.01
2019-05-26T16:00:59.077Z,33.13
2019-05-26T16:03:28.721Z,31.91
2019-05-26T16:05:58.298Z,30.99
2019-05-26T16:08:27.920Z,30.44
2019-05-26T16:10:57.562Z,30.00
2019-05-26T16:13:27.190Z,29.62
2019-05-26T16:15:56.874Z,29.45
2019-05-26T16:18:26.458Z,29.32
2019-05-26T16:21:03.065Z,29.32
2019-05-26T16:23:27.417Z,29.50
2019-05-26T16:25:57.037Z,29.58
2019-05-26T16:28:26.812Z,29.42
2019-05-26T16:30:56.425Z,29.36
2019-05-26T16:33:26.032Z,29.28
2019-05-26T16:35:55.854Z,29.17
2019-05-26T16:38:25.686Z,29.06
2019-05-26T16:40:55.340Z,28.89
2019-05-26T16:43:24.988Z,28.71
2019-05-26T16:45:56.480Z,28.55
2019-05-26T16:48:26.463Z,28.49
2019-05-26T16:50:56.070Z,28.36
2019-05-26T16:53:25.698Z,28.24
2019-05-26T16:55:55.344Z,28.18
2019-05-26T16:58:24.937Z,28.14
2019-05-26T17:00:54.591Z,28.13
2019-05-26T17:03:24.236Z,28.11
2019-05-26T17:06:07.044Z,28.10
2019-05-26T17:08:25.190Z,28.03
2019-05-26T17:10:55.495Z,27.98
2019-05-26T17:13:25.837Z,27.96
2019-05-26T17:15:56.150Z,27.84
2019-05-26T17:18:26.389Z,27.82
2019-05-26T17:20:56.693Z,27.80
2019-05-26T17:23:26.964Z,27.71
2019-05-26T17:25:57.206Z,27.67
2019-05-26T17:28:27.459Z,27.56
2019-05-26T17:30:57.822Z,27.54
2019-05-26T17:33:29.411Z,27.50
2019-05-26T17:35:59.769Z,27.43
2019-05-26T17:38:30.193Z,27.35
2019-05-26T17:41:00.459Z,27.23
2019-05-26T17:43:30.725Z,27.10
2019-05-26T17:46:02.556Z,27.05
2019-05-26T17:48:32.842Z,26.95
2019-05-26T17:51:03.084Z,26.88
2019-05-26T17:53:33.694Z,26.82
2019-05-26T17:56:04.006Z,26.72
2019-05-26T17:58:34.269Z,26.68
2019-05-26T18:01:04.658Z,26.66
2019-05-26T18:03:34.931Z,26.50
2019-05-26T18:06:05.288Z,26.40
2019-05-26T18:08:36.549Z,26.25
2019-05-26T18:11:07.250Z,26.17
2019-05-26T18:13:40.475Z,26.11
2019-05-26T18:16:11.269Z,26.04
2019-05-26T18:18:41.577Z,25.91
2019-05-26T18:21:11.855Z,25.79
2019-05-26T18:23:42.140Z,25.67
2019-05-26T18:26:12.404Z,25.58
2019-05-26T18:28:43.148Z,25.48
2019-05-26T18:31:13.430Z,25.37
2019-05-26T18:33:43.729Z,25.29
2019-05-26T18:36:14.003Z,25.26
2019-05-26T18:38:44.332Z,25.17
2019-05-26T18:41:23.848Z,25.05
2019-05-26T18:43:54.142Z,24.90
2019-05-26T18:46:24.409Z,24.79
2019-05-26T18:48:54.909Z,24.67
2019-05-26T18:51:25.426Z,24.60
2019-05-26T18:53:55.840Z,24.56
2019-05-26T18:56:26.228Z,24.42
2019-05-26T18:58:56.549Z,24.32
2019-05-26T19:01:26.919Z,24.15
2019-05-26T19:03:57.177Z,24.13
2019-05-26T19:06:27.553Z,24.03
2019-05-26T19:08:57.847Z,23.89
2019-05-26T19:11:28.106Z,23.79
2019-05-26T19:13:58.388Z,23.71
2019-05-26T19:17:14.869Z,23.61
2019-05-26T19:19:40.736Z,23.54
2019-05-26T19:22:11.058Z,23.41
2019-05-26T19:24:41.311Z,23.32
2019-05-26T19:27:11.573Z,23.25
2019-05-26T19:29:44.332Z,23.25
2019-05-26T19:32:14.700Z,23.20
2019-05-26T19:34:46.521Z,23.10
2019-05-26T19:37:16.826Z,23.02
2019-05-26T19:39:47.090Z,22.95
2019-05-26T19:42:17.355Z,22.89
2019-05-26T19:44:47.677Z,22.86
2019-05-26T19:47:18.023Z,22.74
2019-05-26T19:49:48.358Z,22.69
2019-05-26T19:52:18.657Z,22.62
2019-05-26T19:54:48.899Z,22.56
2019-05-26T19:57:19.173Z,22.48
2019-05-26T19:59:49.424Z,22.46
2019-05-26T20:02:19.704Z,22.44
2019-05-26T20:04:50.149Z,22.40
2019-05-26T20:07:22.575Z,22.37
2019-05-26T20:09:52.965Z,22.36
2019-05-26T20:12:23.624Z,22.35
2019-05-26T20:14:55.362Z,22.36
2019-05-26T20:17:25.749Z,22.33
2019-05-26T20:19:56.017Z,22.26
2019-05-26T20:22:26.290Z,22.21
2019-05-26T20:24:56.560Z,22.19
2019-05-26T20:27:26.891Z,22.12
2019-05-26T20:29:57.310Z,22.06
2019-05-26T20:32:27.628Z,22.00
2019-05-26T20:34:57.918Z,21.98
2019-05-26T20:37:28.181Z,21.99
2019-05-26T20:39:58.499Z,21.99
2019-05-26T20:42:28.721Z,21.92
2019-05-26T20:45:01.644Z,21.95
2019-05-26T20:47:31.909Z,21.95
2019-05-26T20:50:02.204Z,21.96
2019-05-26T20:52:32.449Z,21.94
2019-05-26T20:55:02.846Z,21.90
2019-05-26T20:57:33.141Z,21.77
2019-05-26T21:00:05.667Z,21.76
2019-05-26T21:02:35.982Z,21.65
2019-05-26T21:05:08.553Z,21.48
2019-05-26T21:07:38.789Z,21.36
2019-05-26T21:10:09.571Z,21.30
2019-05-26T21:12:39.908Z,21.27
2019-05-26T21:15:11.293Z,21.13
2019-05-26T21:17:41.576Z,21.10
2019-05-26T21:20:12.543Z,21.03
2019-05-26T21:22:42.895Z,20.97
2019-05-26T21:25:14.894Z,20.86
2019-05-26T21:27:45.161Z,20.74
2019-05-26T21:30:15.910Z,20.71
2019-05-26T21:32:46.173Z,20.71
2019-05-26T21:35:16.609Z,20.68
2019-05-26T21:37:46.900Z,20.67
2019-05-26T21:40:17.433Z,20.60
2019-05-26T21:42:48.340Z,20.53
2019-05-26T21:45:18.887Z,20.50
2019-05-26T21:47:49.298Z,20.46
2019-05-26T21:50:20.005Z,20.37
2019-05-26T21:52:50.331Z,20.35
2019-05-26T21:55:20.793Z,20.30
2019-05-26T21:57:54.504Z,20.21
2019-05-26T22:00:27.605Z,20.21
2019-05-26T22:02:57.895Z,20.15
2019-05-26T22:05:28.146Z,20.11
2019-05-26T22:07:57.847Z,20.11
2019-05-26T22:10:28.203Z,20.11
2019-05-26T22:12:58.485Z,20.03
2019-05-26T22:15:28.752Z,19.99
2019-05-26T22:17:58.995Z,20.00
2019-05-26T22:20:29.254Z,19.94
2019-05-26T22:22:59.555Z,19.92
2019-05-26T22:25:29.815Z,19.81
2019-05-26T22:28:00.115Z,19.79
2019-05-26T22:30:30.465Z,19.74
2019-05-26T22:33:00.816Z,19.70
2019-05-26T22:35:30.633Z,19.70
2019-05-26T22:38:00.908Z,19.62
2019-05-26T22:40:31.231Z,19.59
2019-05-26T22:43:01.481Z,19.54
2019-05-26T22:45:31.176Z,19.42
2019-05-26T22:48:02.991Z,19.35
2019-05-26T22:50:32.721Z,19.29
2019-05-26T22:53:02.998Z,19.23
2019-05-26T22:55:32.693Z,19.25
2019-05-26T22:58:02.401Z,19.26
2019-05-26T23:00:32.247Z,19.32
2019-05-26T23:03:02.075Z,19.31
2019-05-26T23:05:32.328Z,19.33
2019-05-26T23:08:02.589Z,19.30
2019-05-26T23:10:32.861Z,19.35
2019-05-26T23:13:02.635Z,19.37
2019-05-26T23:15:34.437Z,19.40
2019-05-26T23:18:04.802Z,19.40
2019-05-26T23:20:35.101Z,19.39
2019-05-26T23:23:05.351Z,19.34
2019-05-26T23:25:35.057Z,19.32
2019-05-26T23:28:05.301Z,19.28
2019-05-26T23:30:35.011Z,19.22
2019-05-26T23:33:04.763Z,19.17
2019-05-26T23:35:34.480Z,19.19
2019-05-26T23:38:04.166Z,19.18
2019-05-26T23:40:33.855Z,19.20
2019-05-26T23:43:03.532Z,19.20
2019-05-26T23:45:33.357Z,19.23
2019-05-26T23:48:03.047Z,19.23
2019-05-26T23:50:32.763Z,19.30
2019-05-26T23:53:02.458Z,19.36
2019-05-26T23:55:32.227Z,19.42
2019-05-26T23:58:01.892Z,19.39
